This is the latest recevied weather packets stored in our database for station/object KG4ZVW. If no packets are shown the sender has not sent any weather packets the latest 10 day(s).
| Time | Temp. | Humidity | Pressure | Rain* | Wind** | Luminosity | Snow |
|---|---|---|---|---|---|---|---|
| 1777311520 | 26.11° C | 72% | 1016.1 hPa | 0.25 mm | - | 243 W/m² | - |
| 1777311214 | 26.11° C | 71% | 1016.1 hPa | 0.25 mm | - | 253 W/m² | - |
| 1777310909 | 26.67° C | 71% | 1016.1 hPa | 0.25 mm | - | 313 W/m² | - |
| 1777310605 | 26.67° C | 73% | 1016.1 hPa | 0.25 mm | - | 329 W/m² | - |
| 1777310304 | 26.67° C | 73% | 1016.1 hPa | 0.25 mm | - | 352 W/m² | - |
| 1777310019 | 26.11° C | 74% | 1016.1 hPa | 0.25 mm | - | 387 W/m² | - |
| 1777309713 | 26.11° C | 75% | 1016.1 hPa | 0.25 mm | - | 434 W/m² | - |
| 1777309409 | 26.67° C | 74% | 1016.1 hPa | 0.25 mm | - | 388 W/m² | - |
| 1777309105 | 26.67° C | 74% | 1016.1 hPa | 0.25 mm | - | 262 W/m² | - |
| 1777308802 | 27.78° C | 71% | 1016.1 hPa | 0 mm | - | 236 W/m² | - |
| 1777308519 | 27.78° C | 69% | 1016.1 hPa | 0 mm | - | 278 W/m² | - |
| 1777308214 | 27.78° C | 70% | 1016.1 hPa | 0 mm | - | 909 W/m² | - |
| 1777307906 | 28.33° C | 69% | 1016.1 hPa | 0 mm | - | 487 W/m² | - |
| 1777307620 | 28.33° C | 70% | 1016.1 hPa | 0 mm | - | 568 W/m² | - |
| 1777307315 | 27.78° C | 72% | 1016.1 hPa | 0 mm | - | 1167 W/m² | - |
| 1777307009 | 27.22° C | 72% | 1016.1 hPa | 0 mm | - | 559 W/m² | - |
| 1777306706 | 27.22° C | 75% | 1016.1 hPa | 0 mm | - | 1153 W/m² | - |
| 1777306422 | 26.67° C | 75% | 1016.1 hPa | 0 mm | - | 1121 W/m² | - |
| 1777306115 | 26.67° C | 73% | 1016.1 hPa | 0 mm | - | 327 W/m² | - |
| 1777305809 | 27.78° C | 71% | 1016.1 hPa | 0 mm | - | 216 W/m² | - |
| 1777305508 | 28.33° C | 70% | 1016.1 hPa | 0 mm | - | 371 W/m² | - |
| 1777305204 | 28.33° C | 70% | 1016.1 hPa | 0 mm | - | 404 W/m² | - |
| 1777304921 | 27.78° C | 70% | 1016.1 hPa | 0 mm | - | 413 W/m² | - |
| 1777304616 | 27.78° C | 71% | 1016.1 hPa | 0 mm | - | 503 W/m² | - |
| 1777304309 | 27.78° C | 73% | 1016 hPa | 0 mm | - | 1030 W/m² | - |
* Rain latest hour (hover to see other rain measurements)
** Current wind speed in m/s (hover to see current wind gust speed)